Ship Status Report: callsign URHP

sailwx.info

Track history (hours):
 
Tides and Currents Weather Stations Pressure Air Temp Water Temp Dewpoint Dewpoint Depression Visibility Wind Speed Wind Dir Waves Ship Positions

Callsign URHP (name unknown)

Last reported at 2015-Jul-29 21:34 UTC. Time now 2015-Aug-03 00:31 UTC.
Position N 46°35' E 031°36'.

Date/timePositionNaut miles runAvg speedWind from/ knotsBaromVisibWave heightAir tempDewpointWater temp
2015-Jul-29 21:34N 46°35' E 031°36'8 7.5
2015-Jul-29 20:33N 46°36' E 031°47'7 7.3
2015-Jul-29 19:33N 46°33' E 031°58'7 7.1
2015-Jul-29 18:33N 46°32' E 032°08'143 3.8
2015-Jul-28 04:33N 47°44' E 035°10'5 4.7
2015-Jul-28 03:33N 47°48' E 035°09'4 3.9
2015-Jul-28 02:27N 47°52' E 035°06'1 0.8
2015-Jul-28 01:33N 47°52' E 035°06'0 0.0
2015-Jul-28 00:33N 47°52' E 035°06'0 0.0
2015-Jul-27 23:33N 47°52' E 035°06'0 0.0
2015-Jul-27 22:34N 47°52' E 035°06'0 0.0
2015-Jul-27 21:33N 47°52' E 035°06'0 0.0
2015-Jul-27 20:33N 47°52' E 035°06'0 0.0
2015-Jul-27 19:33N 47°52' E 035°06'0 0.0
2015-Jul-27 18:33N 47°52' E 035°06'0 0.0
2015-Jul-27 17:33N 47°52' E 035°06'0 0.0
2015-Jul-27 16:33N 47°52' E 035°06'0 0.0
2015-Jul-27 15:33N 47°52' E 035°06'0 0.0
2015-Jul-27 14:33N 47°52' E 035°06'0 0.0
2015-Jul-27 13:33N 47°52' E 035°06'0 0.0
2015-Jul-27 12:33N 47°52' E 035°06'0 0.0
2015-Jul-27 11:33N 47°52' E 035°06'0 0.0
2015-Jul-27 10:33N 47°52' E 035°06'0 0.0
2015-Jul-27 09:33N 47°52' E 035°06'0 0.0
2015-Jul-27 08:33N 47°52' E 035°06'0 0.1
2015-Jul-27 07:33N 47°52' E 035°06'0 0.0
2015-Jul-27 06:33N 47°52' E 035°06'0 0.0
2015-Jul-27 05:33N 47°52' E 035°06'0 0.0
2015-Jul-27 04:33N 47°52' E 035°06'0 0.0
2015-Jul-27 03:33N 47°52' E 035°06'0 0.0
2015-Jul-27 02:33N 47°52' E 035°06'0 0.0
2015-Jul-27 01:33N 47°52' E 035°06'0 0.0
2015-Jul-27 00:33N 47°52' E 035°06'0 0.0
2015-Jul-26 23:33N 47°52' E 035°06'0 0.0
2015-Jul-26 22:33N 47°52' E 035°06'0 0.0
2015-Jul-26 21:33N 47°52' E 035°06'0 0.0
2015-Jul-26 20:33N 47°52' E 035°06'0 0.0
2015-Jul-26 19:33N 47°52' E 035°06'0 0.0
2015-Jul-26 18:32N 47°52' E 035°06'0 0.0
2015-Jul-26 17:33N 47°52' E 035°06'0 0.0
2015-Jul-26 16:34N 47°52' E 035°06'0 0.0
2015-Jul-26 15:34N 47°52' E 035°06'0 0.0
2015-Jul-26 12:15N 47°52' E 035°06'142 3.2
2015-Jul-24 15:32N 46°33' E 032°13'8 7.8
2015-Jul-24 14:33N 46°33' E 032°01'8 8.2
2015-Jul-24 13:33N 46°35' E 031°50'40 6.4
2015-Jul-24 07:20N 46°18' E 030°57'6 7.1
2015-Jul-24 06:28N 46°12' E 030°56'8 8.5
2015-Jul-24 05:34N 46°05' E 030°54'8 8.5
2015-Jul-24 04:34N 45°57' E 030°51'8 8.2
2015-Jul-24 03:33N 45°49' E 030°48'8 7.9
2015-Jul-24 02:33N 45°41' E 030°44'8 7.7
2015-Jul-24 01:33N 45°34' E 030°42'9 7.4
2015-Jul-24 00:20N 45°25' E 030°39'6 7.2
2015-Jul-23 23:34N 45°20' E 030°37'7 7.2
2015-Jul-23 22:33N 45°13' E 030°34'7 7.3
2015-Jul-23 21:33N 45°05' E 030°32'8 7.7
2015-Jul-23 20:34N 44°58' E 030°29'8 7.9
2015-Jul-23 19:34N 44°50' E 030°27'241 6.9
2015-Jul-22 08:33N 40°58' E 028°59'5 4.7
2015-Jul-22 07:30N 40°54' E 028°57'24 0.5
2015-Jul-20 03:31N 40°45' E 029°26'0 0.0
2015-Jul-19 22:15N 40°45' E 029°26'  
Track history (hours):
 
Tides and Currents Weather Stations Pressure Air Temp Water Temp Dewpoint Dewpoint Depression Visibility Wind Speed Wind Dir Waves Ship Positions

Callsign URHP (name unknown)

Last reported at 2015-Jul-29 21:34 UTC. Time now 2015-Aug-03 00:31 UTC.
Position N 46°35' E 031°36'.

Date/timePositionNaut miles runAvg speedWind from/ knotsBaromVisibWave heightAir tempDewpointWater temp
2015-Jul-29 21:34N 46°35' E 031°36'8 7.5
2015-Jul-29 20:33N 46°36' E 031°47'7 7.3
2015-Jul-29 19:33N 46°33' E 031°58'7 7.1
2015-Jul-29 18:33N 46°32' E 032°08'143 3.8
2015-Jul-28 04:33N 47°44' E 035°10'5 4.7
2015-Jul-28 03:33N 47°48' E 035°09'4 3.9
2015-Jul-28 02:27N 47°52' E 035°06'1 0.8
2015-Jul-28 01:33N 47°52' E 035°06'0 0.0
2015-Jul-28 00:33N 47°52' E 035°06'0 0.0
2015-Jul-27 23:33N 47°52' E 035°06'0 0.0
2015-Jul-27 22:34N 47°52' E 035°06'0 0.0
2015-Jul-27 21:33N 47°52' E 035°06'0 0.0
2015-Jul-27 20:33N 47°52' E 035°06'0 0.0
2015-Jul-27 19:33N 47°52' E 035°06'0 0.0
2015-Jul-27 18:33N 47°52' E 035°06'0 0.0
2015-Jul-27 17:33N 47°52' E 035°06'0 0.0
2015-Jul-27 16:33N 47°52' E 035°06'0 0.0
2015-Jul-27 15:33N 47°52' E 035°06'0 0.0
2015-Jul-27 14:33N 47°52' E 035°06'0 0.0
2015-Jul-27 13:33N 47°52' E 035°06'0 0.0
2015-Jul-27 12:33N 47°52' E 035°06'0 0.0
2015-Jul-27 11:33N 47°52' E 035°06'0 0.0
2015-Jul-27 10:33N 47°52' E 035°06'0 0.0
2015-Jul-27 09:33N 47°52' E 035°06'0 0.0
2015-Jul-27 08:33N 47°52' E 035°06'0 0.1
2015-Jul-27 07:33N 47°52' E 035°06'0 0.0
2015-Jul-27 06:33N 47°52' E 035°06'0 0.0
2015-Jul-27 05:33N 47°52' E 035°06'0 0.0
2015-Jul-27 04:33N 47°52' E 035°06'0 0.0
2015-Jul-27 03:33N 47°52' E 035°06'0 0.0
2015-Jul-27 02:33N 47°52' E 035°06'0 0.0
2015-Jul-27 01:33N 47°52' E 035°06'0 0.0
2015-Jul-27 00:33N 47°52' E 035°06'0 0.0
2015-Jul-26 23:33N 47°52' E 035°06'0 0.0
2015-Jul-26 22:33N 47°52' E 035°06'0 0.0
2015-Jul-26 21:33N 47°52' E 035°06'0 0.0
2015-Jul-26 20:33N 47°52' E 035°06'0 0.0
2015-Jul-26 19:33N 47°52' E 035°06'0 0.0
2015-Jul-26 18:32N 47°52' E 035°06'0 0.0
2015-Jul-26 17:33N 47°52' E 035°06'0 0.0
2015-Jul-26 16:34N 47°52' E 035°06'0 0.0
2015-Jul-26 15:34N 47°52' E 035°06'0 0.0
2015-Jul-26 12:15N 47°52' E 035°06'142 3.2
2015-Jul-24 15:32N 46°33' E 032°13'8 7.8
2015-Jul-24 14:33N 46°33' E 032°01'8 8.2
2015-Jul-24 13:33N 46°35' E 031°50'40 6.4
2015-Jul-24 07:20N 46°18' E 030°57'6 7.1
2015-Jul-24 06:28N 46°12' E 030°56'8 8.5
2015-Jul-24 05:34N 46°05' E 030°54'8 8.5
2015-Jul-24 04:34N 45°57' E 030°51'8 8.2
2015-Jul-24 03:33N 45°49' E 030°48'8 7.9
2015-Jul-24 02:33N 45°41' E 030°44'8 7.7
2015-Jul-24 01:33N 45°34' E 030°42'9 7.4
2015-Jul-24 00:20N 45°25' E 030°39'6 7.2
2015-Jul-23 23:34N 45°20' E 030°37'7 7.2
2015-Jul-23 22:33N 45°13' E 030°34'7 7.3
2015-Jul-23 21:33N 45°05' E 030°32'8 7.7
2015-Jul-23 20:34N 44°58' E 030°29'8 7.9
2015-Jul-23 19:34N 44°50' E 030°27'241 6.9
2015-Jul-22 08:33N 40°58' E 028°59'5 4.7
2015-Jul-22 07:30N 40°54' E 028°57'24 0.5
2015-Jul-20 03:31N 40°45' E 029°26'0 0.0
2015-Jul-19 22:15N 40°45' E 029°26'  

Dump ship's entire track history